Impacts METAR Board INFO
IDs:

KEWR - Newark Intl, NJ, US

Updated at: 1229 UTC 18 Dec 2017
Potential Impact None Slight Moderate High
Time18/00Z 18/01Z 18/02Z 18/03Z 18/04Z 18/05Z 18/06Z 18/07Z 18/08Z 18/09Z 18/10Z 18/11Z 18/12Z
VIS10 10 10 10 10 10 10 10 5 9 10 10 10
CIG250 22 18 17 17 16 15 15 28 60 12 14 12
CoverBKNBKNOVCOVCOVCOVCOVCOVCOVCOVCOVCOVCOVC
FltCatVFRMVFRMVFRMVFRMVFRMVFRMVFRMVFRMVFRVFRMVFRMVFRMVFR
WX---------------RA -PL-RA -PL-RA -SN------
WDir03030100808060306030102010
WSpd0 4 6 4 4 4 4 5 6 4 6 5 6
WGst-- -- -- -- -- -- -- -- -- -- -- -- --
Raw hourly METARs
KEWR 172351Z 00000KT 10SM FEW022 SCT120 BKN250 03/M03 A3028 RMK AO2 PRESRR SLP253 T00331028 10033 20022 53014
KEWR 180101Z 03004KT 10SM BKN022 BKN120 BKN250 02/M03 A3026 RMK AO2 T00221028
KEWR 180151Z 03006KT 10SM OVC018 02/M02 A3025 RMK SLP241 T00221022
KEWR 180251Z 10004KT 10SM OVC017 03/M02 A3023 RMK AO2 SLP237 T00281022 56016
KEWR 180351Z 08004KT 10SM BKN017 OVC120 03/M03 A3022 RMK AO2 SLP231 T00281028
KEWR 180451Z 08004KT 10SM OVC016 03/M03 A3020 RMK AO2 SLP226 T00281028 400330000
KEWR 180551Z 06004KT 10SM OVC015 03/M02 A3019 RMK AO2 SLP223 T00281022 10033 20022 56014
KEWR 180651Z 03005KT 10SM -RAPL OVC015 02/M02 A3019 RMK AO2 RAB35SNB17E45PLB29 SLP221 P0001 T00171022
KEWR 180759Z 06006KT 5SM -RAPL SCT016 BKN028 OVC050 02/M01 A3017 RMK AO2 PLB59 P0000 T00171011
KEWR 180851Z 03004KT 9SM -RASN FEW014 SCT025 OVC060 02/M01 A3014 RMK AO2 PLB0759E18SNB41 SLP207 P0001 60004 T00171006 58016
KEWR 180951Z 01006KT 10SM OVC012 01/M01 A3015 RMK AO2 RAE42SNE05 SLP208 P0000 T00111006
KEWR 181051Z 02005KT 10SM OVC014 01/M02 A3014 RMK AO2 SLP205 T00111017
KEWR 181151Z 01006KT 10SM BKN012 BKN020 OVC075 01/M02 A3013 RMK AO2 SLP203 CIG 010V015 931000 60004 70004 T00111017 10028 20011 58004